Terminal Aerodrome Forecast
Issued by NWS

Home | Current Version | Previous Version | Text Only | Print | Product List | Glossary On
Versions: 1 2 3 4 5 6 7 8 9 10 11 12 13 14 15 16 17 18 19 20 21 22
000
FTUS44 KBMX 281120
TAFTOI
TAF
KTOI 281120Z 2812/2912 04004KT P6SM SCT050 BKN250
     FM281600 07008KT P6SM BKN050 OVC250
     FM282000 09010KT 3SM -RA BR VCTS BKN015CB
     FM290400 07008KT 3SM -RA BR VCTS SCT007CB OVC009
     FM290800 11008KT 4SM BR OVC004=

USA.gov is the U.S. government's official web portal to all federal, state and local government web resources and services.